sensor_id;sensor_type;location;lat;lon;timestamp;P1;durP1;ratioP1;P2;durP2;ratioP2
64252;SDS011;50592;52.958;-7.470;2023-07-02T00:00:02;18.80;;;4.65;;
64252;SDS011;50592;52.958;-7.470;2023-07-02T00:02:35;20.20;;;3.97;;
64252;SDS011;50592;52.958;-7.470;2023-07-02T00:05:01;15.73;;;4.00;;
64252;SDS011;50592;52.958;-7.470;2023-07-02T00:07:27;14.20;;;4.50;;
64252;SDS011;50592;52.958;-7.470;2023-07-02T00:09:54;16.50;;;3.20;;
64252;SDS011;50592;52.958;-7.470;2023-07-02T00:12:19;21.08;;;4.30;;
64252;SDS011;50592;52.958;-7.470;2023-07-02T00:14:45;19.92;;;3.20;;
64252;SDS011;50592;52.958;-7.470;2023-07-02T00:17:11;13.27;;;3.45;;
64252;SDS011;50592;52.958;-7.470;2023-07-02T00:19:38;12.57;;;3.28;;
64252;SDS011;50592;52.958;-7.470;2023-07-02T00:22:10;16.63;;;3.20;;
64252;SDS011;50592;52.958;-7.470;2023-07-02T00:24:36;15.45;;;3.63;;
64252;SDS011;50592;52.958;-7.470;2023-07-02T00:27:02;17.80;;;3.45;;
64252;SDS011;50592;52.958;-7.470;2023-07-02T00:29:28;17.30;;;5.35;;
64252;SDS011;50592;52.958;-7.470;2023-07-02T00:31:54;14.05;;;3.78;;
64252;SDS011;50592;52.958;-7.470;2023-07-02T00:34:20;16.90;;;3.85;;
64252;SDS011;50592;52.958;-7.470;2023-07-02T00:36:46;16.80;;;3.60;;
64252;SDS011;50592;52.958;-7.470;2023-07-02T00:39:12;14.82;;;3.35;;
64252;SDS011;50592;52.958;-7.470;2023-07-02T00:41:38;15.77;;;3.95;;
64252;SDS011;50592;52.958;-7.470;2023-07-02T00:44:04;13.70;;;4.18;;
64252;SDS011;50592;52.958;-7.470;2023-07-02T00:46:30;16.90;;;3.85;;
64252;SDS011;50592;52.958;-7.470;2023-07-02T00:48:56;18.65;;;3.50;;
64252;SDS011;50592;52.958;-7.470;2023-07-02T00:51:25;16.63;;;3.53;;
64252;SDS011;50592;52.958;-7.470;2023-07-02T00:53:52;16.77;;;4.47;;
64252;SDS011;50592;52.958;-7.470;2023-07-02T00:56:23;13.18;;;3.20;;
64252;SDS011;50592;52.958;-7.470;2023-07-02T00:58:52;10.90;;;2.78;;
64252;SDS011;50592;52.958;-7.470;2023-07-02T01:01:23;18.77;;;3.63;;
64252;SDS011;50592;52.958;-7.470;2023-07-02T01:06:28;15.05;;;3.40;;
64252;SDS011;50592;52.958;-7.470;2023-07-02T01:08:57;16.23;;;3.25;;
64252;SDS011;50592;52.958;-7.470;2023-07-02T01:11:30;20.15;;;4.05;;
64252;SDS011;50592;52.958;-7.470;2023-07-02T01:14:04;16.85;;;4.10;;
64252;SDS011;50592;52.958;-7.470;2023-07-02T01:19:02;17.42;;;3.15;;
64252;SDS011;50592;52.958;-7.470;2023-07-02T01:21:33;16.23;;;3.22;;
64252;SDS011;50592;52.958;-7.470;2023-07-02T01:24:00;19.58;;;3.38;;
64252;SDS011;50592;52.958;-7.470;2023-07-02T01:26:32;17.35;;;3.50;;
64252;SDS011;50592;52.958;-7.470;2023-07-02T01:29:00;19.00;;;3.58;;
64252;SDS011;50592;52.958;-7.470;2023-07-02T01:31:46;20.42;;;4.05;;
64252;SDS011;50592;52.958;-7.470;2023-07-02T01:34:13;17.38;;;4.30;;
64252;SDS011;50592;52.958;-7.470;2023-07-02T01:36:39;19.67;;;4.50;;
64252;SDS011;50592;52.958;-7.470;2023-07-02T01:39:05;18.65;;;3.95;;
64252;SDS011;50592;52.958;-7.470;2023-07-02T01:41:48;18.67;;;3.85;;
64252;SDS011;50592;52.958;-7.470;2023-07-02T01:44:17;20.02;;;4.10;;
64252;SDS011;50592;52.958;-7.470;2023-07-02T01:46:43;20.95;;;4.72;;
64252;SDS011;50592;52.958;-7.470;2023-07-02T01:49:17;24.35;;;3.80;;
64252;SDS011;50592;52.958;-7.470;2023-07-02T01:51:51;20.15;;;4.47;;
64252;SDS011;50592;52.958;-7.470;2023-07-02T01:54:18;23.40;;;4.80;;
64252;SDS011;50592;52.958;-7.470;2023-07-02T01:56:44;16.70;;;3.85;;
64252;SDS011;50592;52.958;-7.470;2023-07-02T01:59:10;21.30;;;4.28;;
64252;SDS011;50592;52.958;-7.470;2023-07-02T02:01:36;19.73;;;4.85;;
64252;SDS011;50592;52.958;-7.470;2023-07-02T02:04:06;24.70;;;4.47;;
64252;SDS011;50592;52.958;-7.470;2023-07-02T02:06:33;22.52;;;4.57;;
64252;SDS011;50592;52.958;-7.470;2023-07-02T02:08:59;22.38;;;3.75;;
64252;SDS011;50592;52.958;-7.470;2023-07-02T02:11:26;30.05;;;5.20;;
64252;SDS011;50592;52.958;-7.470;2023-07-02T02:13:53;30.42;;;5.05;;
64252;SDS011;50592;52.958;-7.470;2023-07-02T02:16:19;14.80;;;3.95;;
64252;SDS011;50592;52.958;-7.470;2023-07-02T02:18:45;18.15;;;4.18;;
64252;SDS011;50592;52.958;-7.470;2023-07-02T02:21:13;25.88;;;4.18;;
64252;SDS011;50592;52.958;-7.470;2023-07-02T02:23:40;18.38;;;4.13;;
64252;SDS011;50592;52.958;-7.470;2023-07-02T02:26:06;24.80;;;4.35;;
64252;SDS011;50592;52.958;-7.470;2023-07-02T02:28:34;23.60;;;4.00;;
64252;SDS011;50592;52.958;-7.470;2023-07-02T02:31:00;18.38;;;3.58;;
64252;SDS011;50592;52.958;-7.470;2023-07-02T02:33:26;22.95;;;4.53;;
64252;SDS011;50592;52.958;-7.470;2023-07-02T02:35:52;24.52;;;4.63;;
64252;SDS011;50592;52.958;-7.470;2023-07-02T02:38:19;18.38;;;3.75;;
64252;SDS011;50592;52.958;-7.470;2023-07-02T02:40:45;90.10;;;9.10;;
64252;SDS011;50592;52.958;-7.470;2023-07-02T02:43:15;27.70;;;4.70;;
64252;SDS011;50592;52.958;-7.470;2023-07-02T02:45:45;21.25;;;4.38;;
64252;SDS011;50592;52.958;-7.470;2023-07-02T02:48:11;20.15;;;3.65;;
64252;SDS011;50592;52.958;-7.470;2023-07-02T02:50:37;28.60;;;3.50;;
64252;SDS011;50592;52.958;-7.470;2023-07-02T02:53:07;20.23;;;3.92;;
64252;SDS011;50592;52.958;-7.470;2023-07-02T02:55:34;21.13;;;3.15;;
64252;SDS011;50592;52.958;-7.470;2023-07-02T02:58:00;21.70;;;3.80;;
64252;SDS011;50592;52.958;-7.470;2023-07-02T03:00:26;21.77;;;3.70;;
64252;SDS011;50592;52.958;-7.470;2023-07-02T03:02:53;22.10;;;3.60;;
64252;SDS011;50592;52.958;-7.470;2023-07-02T03:05:19;22.00;;;4.30;;
64252;SDS011;50592;52.958;-7.470;2023-07-02T03:07:45;22.77;;;4.05;;
64252;SDS011;50592;52.958;-7.470;2023-07-02T03:10:11;15.13;;;3.58;;
64252;SDS011;50592;52.958;-7.470;2023-07-02T03:12:37;19.50;;;3.55;;
64252;SDS011;50592;52.958;-7.470;2023-07-02T03:15:03;21.40;;;3.45;;
64252;SDS011;50592;52.958;-7.470;2023-07-02T03:17:29;22.10;;;3.47;;
64252;SDS011;50592;52.958;-7.470;2023-07-02T03:19:55;20.95;;;3.33;;
64252;SDS011;50592;52.958;-7.470;2023-07-02T03:22:21;18.73;;;3.72;;
64252;SDS011;50592;52.958;-7.470;2023-07-02T03:24:46;23.73;;;3.95;;
64252;SDS011;50592;52.958;-7.470;2023-07-02T03:27:12;21.05;;;3.60;;
64252;SDS011;50592;52.958;-7.470;2023-07-02T03:29:38;22.25;;;3.80;;
64252;SDS011;50592;52.958;-7.470;2023-07-02T03:32:04;20.27;;;3.05;;
64252;SDS011;50592;52.958;-7.470;2023-07-02T03:34:30;23.05;;;4.25;;
64252;SDS011;50592;52.958;-7.470;2023-07-02T03:36:56;25.65;;;3.90;;
64252;SDS011;50592;52.958;-7.470;2023-07-02T03:39:22;22.88;;;4.22;;
64252;SDS011;50592;52.958;-7.470;2023-07-02T03:41:48;22.20;;;3.60;;
64252;SDS011;50592;52.958;-7.470;2023-07-02T03:44:13;25.15;;;4.00;;
64252;SDS011;50592;52.958;-7.470;2023-07-02T03:46:39;19.92;;;4.72;;
64252;SDS011;50592;52.958;-7.470;2023-07-02T03:49:05;22.05;;;3.78;;
64252;SDS011;50592;52.958;-7.470;2023-07-02T03:51:31;17.27;;;3.03;;
64252;SDS011;50592;52.958;-7.470;2023-07-02T03:53:58;20.85;;;4.13;;
64252;SDS011;50592;52.958;-7.470;2023-07-02T03:56:24;22.13;;;4.00;;
64252;SDS011;50592;52.958;-7.470;2023-07-02T03:58:50;172.00;;;28.83;;
64252;SDS011;50592;52.958;-7.470;2023-07-02T04:01:15;24.42;;;4.35;;
64252;SDS011;50592;52.958;-7.470;2023-07-02T04:03:42;21.90;;;3.95;;
64252;SDS011;50592;52.958;-7.470;2023-07-02T04:06:14;110.95;;;10.73;;
64252;SDS011;50592;52.958;-7.470;2023-07-02T04:08:40;19.98;;;3.30;;
64252;SDS011;50592;52.958;-7.470;2023-07-02T04:11:06;22.20;;;3.40;;
64252;SDS011;50592;52.958;-7.470;2023-07-02T04:13:32;18.98;;;4.13;;
64252;SDS011;50592;52.958;-7.470;2023-07-02T04:15:57;17.38;;;3.20;;
64252;SDS011;50592;52.958;-7.470;2023-07-02T04:18:23;18.58;;;3.35;;
64252;SDS011;50592;52.958;-7.470;2023-07-02T04:20:49;21.77;;;3.60;;
64252;SDS011;50592;52.958;-7.470;2023-07-02T04:23:15;16.25;;;3.88;;
64252;SDS011;50592;52.958;-7.470;2023-07-02T04:25:41;21.48;;;3.65;;
64252;SDS011;50592;52.958;-7.470;2023-07-02T04:28:07;24.70;;;4.00;;
64252;SDS011;50592;52.958;-7.470;2023-07-02T04:30:33;20.98;;;4.50;;
64252;SDS011;50592;52.958;-7.470;2023-07-02T04:33:00;20.02;;;4.45;;
64252;SDS011;50592;52.958;-7.470;2023-07-02T04:35:26;24.30;;;4.43;;
64252;SDS011;50592;52.958;-7.470;2023-07-02T04:37:51;22.80;;;3.90;;
64252;SDS011;50592;52.958;-7.470;2023-07-02T04:40:17;19.63;;;3.47;;
64252;SDS011;50592;52.958;-7.470;2023-07-02T04:42:43;21.20;;;3.47;;
64252;SDS011;50592;52.958;-7.470;2023-07-02T04:45:12;21.00;;;4.10;;
64252;SDS011;50592;52.958;-7.470;2023-07-02T04:47:43;22.27;;;3.20;;
64252;SDS011;50592;52.958;-7.470;2023-07-02T04:50:09;15.57;;;3.38;;
64252;SDS011;50592;52.958;-7.470;2023-07-02T04:52:35;19.55;;;4.30;;
64252;SDS011;50592;52.958;-7.470;2023-07-02T04:55:02;22.30;;;3.30;;
64252;SDS011;50592;52.958;-7.470;2023-07-02T04:57:28;20.13;;;3.45;;
64252;SDS011;50592;52.958;-7.470;2023-07-02T04:59:54;14.77;;;3.03;;
64252;SDS011;50592;52.958;-7.470;2023-07-02T05:02:20;22.35;;;3.45;;
64252;SDS011;50592;52.958;-7.470;2023-07-02T05:04:46;19.50;;;3.53;;
64252;SDS011;50592;52.958;-7.470;2023-07-02T05:07:11;21.55;;;3.75;;
64252;SDS011;50592;52.958;-7.470;2023-07-02T05:09:37;17.13;;;3.33;;
64252;SDS011;50592;52.958;-7.470;2023-07-02T05:12:03;22.05;;;3.80;;
64252;SDS011;50592;52.958;-7.470;2023-07-02T05:14:29;19.48;;;3.97;;
64252;SDS011;50592;52.958;-7.470;2023-07-02T05:16:55;22.95;;;4.35;;
64252;SDS011;50592;52.958;-7.470;2023-07-02T05:19:21;15.38;;;3.95;;
64252;SDS011;50592;52.958;-7.470;2023-07-02T05:21:46;18.55;;;3.13;;
64252;SDS011;50592;52.958;-7.470;2023-07-02T05:24:12;24.13;;;3.80;;
64252;SDS011;50592;52.958;-7.470;2023-07-02T05:26:38;19.35;;;3.33;;
64252;SDS011;50592;52.958;-7.470;2023-07-02T05:29:04;17.67;;;3.90;;
64252;SDS011;50592;52.958;-7.470;2023-07-02T05:31:30;22.23;;;3.38;;
64252;SDS011;50592;52.958;-7.470;2023-07-02T05:33:57;13.98;;;2.90;;
64252;SDS011;50592;52.958;-7.470;2023-07-02T05:36:22;18.88;;;3.55;;
64252;SDS011;50592;52.958;-7.470;2023-07-02T05:38:48;18.38;;;3.55;;
64252;SDS011;50592;52.958;-7.470;2023-07-02T05:41:18;18.95;;;4.30;;
64252;SDS011;50592;52.958;-7.470;2023-07-02T05:43:44;18.92;;;2.90;;
64252;SDS011;50592;52.958;-7.470;2023-07-02T05:46:10;19.73;;;3.53;;
64252;SDS011;50592;52.958;-7.470;2023-07-02T05:48:37;18.13;;;3.30;;
64252;SDS011;50592;52.958;-7.470;2023-07-02T05:51:03;26.25;;;3.78;;
64252;SDS011;50592;52.958;-7.470;2023-07-02T05:53:29;16.10;;;3.17;;
64252;SDS011;50592;52.958;-7.470;2023-07-02T05:55:55;12.95;;;3.78;;
64252;SDS011;50592;52.958;-7.470;2023-07-02T05:58:21;23.05;;;4.38;;
64252;SDS011;50592;52.958;-7.470;2023-07-02T06:00:47;19.35;;;3.53;;
64252;SDS011;50592;52.958;-7.470;2023-07-02T06:03:15;16.17;;;3.17;;
64252;SDS011;50592;52.958;-7.470;2023-07-02T06:05:48;26.05;;;3.53;;
64252;SDS011;50592;52.958;-7.470;2023-07-02T06:08:15;19.45;;;3.50;;
64252;SDS011;50592;52.958;-7.470;2023-07-02T06:10:41;13.18;;;2.35;;
64252;SDS011;50592;52.958;-7.470;2023-07-02T06:13:08;24.17;;;3.45;;
64252;SDS011;50592;52.958;-7.470;2023-07-02T06:15:34;23.20;;;3.95;;
64252;SDS011;50592;52.958;-7.470;2023-07-02T06:17:59;24.98;;;3.47;;
64252;SDS011;50592;52.958;-7.470;2023-07-02T06:20:25;18.02;;;3.53;;
64252;SDS011;50592;52.958;-7.470;2023-07-02T06:22:51;13.82;;;3.05;;
64252;SDS011;50592;52.958;-7.470;2023-07-02T06:25:17;17.52;;;2.85;;
64252;SDS011;50592;52.958;-7.470;2023-07-02T06:27:43;23.27;;;3.13;;
64252;SDS011;50592;52.958;-7.470;2023-07-02T06:30:09;20.02;;;3.80;;
64252;SDS011;50592;52.958;-7.470;2023-07-02T06:32:35;14.55;;;3.17;;
64252;SDS011;50592;52.958;-7.470;2023-07-02T06:35:01;15.20;;;3.60;;
64252;SDS011;50592;52.958;-7.470;2023-07-02T06:37:27;23.23;;;4.28;;
64252;SDS011;50592;52.958;-7.470;2023-07-02T06:39:52;21.20;;;3.17;;
64252;SDS011;50592;52.958;-7.470;2023-07-02T06:42:18;17.15;;;3.15;;
64252;SDS011;50592;52.958;-7.470;2023-07-02T06:44:44;14.95;;;2.85;;
64252;SDS011;50592;52.958;-7.470;2023-07-02T06:47:10;15.90;;;3.45;;
64252;SDS011;50592;52.958;-7.470;2023-07-02T06:49:36;14.85;;;3.53;;
64252;SDS011;50592;52.958;-7.470;2023-07-02T06:52:02;19.67;;;3.67;;
64252;SDS011;50592;52.958;-7.470;2023-07-02T06:54:28;19.67;;;3.70;;
64252;SDS011;50592;52.958;-7.470;2023-07-02T06:56:54;19.27;;;4.30;;
64252;SDS011;50592;52.958;-7.470;2023-07-02T06:59:20;16.20;;;3.50;;
64252;SDS011;50592;52.958;-7.470;2023-07-02T07:01:51;14.82;;;3.00;;
64252;SDS011;50592;52.958;-7.470;2023-07-02T07:04:17;19.33;;;3.22;;
64252;SDS011;50592;52.958;-7.470;2023-07-02T07:06:43;17.58;;;2.53;;
64252;SDS011;50592;52.958;-7.470;2023-07-02T07:09:09;16.85;;;2.88;;
64252;SDS011;50592;52.958;-7.470;2023-07-02T07:11:35;12.85;;;2.83;;
64252;SDS011;50592;52.958;-7.470;2023-07-02T07:14:01;96.88;;;69.68;;
64252;SDS011;50592;52.958;-7.470;2023-07-02T07:16:27;23.08;;;18.95;;
64252;SDS011;50592;52.958;-7.470;2023-07-02T07:18:53;27.15;;;16.23;;
64252;SDS011;50592;52.958;-7.470;2023-07-02T07:21:19;1999.90;;;999.90;;
64252;SDS011;50592;52.958;-7.470;2023-07-02T07:23:45;1999.90;;;999.90;;
64252;SDS011;50592;52.958;-7.470;2023-07-02T07:26:11;1999.90;;;999.90;;
64252;SDS011;50592;52.958;-7.470;2023-07-02T07:28:36;1999.90;;;999.90;;
64252;SDS011;50592;52.958;-7.470;2023-07-02T07:31:02;1999.90;;;999.90;;
64252;SDS011;50592;52.958;-7.470;2023-07-02T07:33:28;1999.90;;;999.90;;
64252;SDS011;50592;52.958;-7.470;2023-07-02T07:35:54;1999.90;;;999.90;;
64252;SDS011;50592;52.958;-7.470;2023-07-02T07:38:20;1999.90;;;999.90;;
64252;SDS011;50592;52.958;-7.470;2023-07-02T07:40:46;1999.90;;;999.90;;
64252;SDS011;50592;52.958;-7.470;2023-07-02T07:43:12;1999.90;;;999.90;;
64252;SDS011;50592;52.958;-7.470;2023-07-02T07:45:37;15.05;;;3.65;;
64252;SDS011;50592;52.958;-7.470;2023-07-02T07:48:04;26.25;;;23.58;;
64252;SDS011;50592;52.958;-7.470;2023-07-02T07:50:31;53.20;;;48.65;;
64252;SDS011;50592;52.958;-7.470;2023-07-02T07:52:56;48.65;;;43.92;;
64252;SDS011;50592;52.958;-7.470;2023-07-02T07:55:23;123.28;;;114.93;;
64252;SDS011;50592;52.958;-7.470;2023-07-02T07:57:49;1999.90;;;999.90;;
64252;SDS011;50592;52.958;-7.470;2023-07-02T08:00:15;1999.90;;;999.90;;
64252;SDS011;50592;52.958;-7.470;2023-07-02T08:02:46;1999.90;;;999.90;;
64252;SDS011;50592;52.958;-7.470;2023-07-02T08:05:16;1999.90;;;999.90;;
64252;SDS011;50592;52.958;-7.470;2023-07-02T08:07:41;1999.90;;;999.90;;
64252;SDS011;50592;52.958;-7.470;2023-07-02T08:10:08;109.35;;;102.22;;
64252;SDS011;50592;52.958;-7.470;2023-07-02T08:12:34;1999.90;;;999.90;;
64252;SDS011;50592;52.958;-7.470;2023-07-02T08:15:00;128.43;;;119.75;;
64252;SDS011;50592;52.958;-7.470;2023-07-02T08:17:26;1999.90;;;999.90;;
64252;SDS011;50592;52.958;-7.470;2023-07-02T08:19:52;1999.90;;;999.90;;
64252;SDS011;50592;52.958;-7.470;2023-07-02T08:22:17;1999.90;;;999.90;;
64252;SDS011;50592;52.958;-7.470;2023-07-02T08:24:43;1999.90;;;999.90;;
64252;SDS011;50592;52.958;-7.470;2023-07-02T08:27:09;53.45;;;49.10;;
64252;SDS011;50592;52.958;-7.470;2023-07-02T08:29:38;53.75;;;49.63;;
64252;SDS011;50592;52.958;-7.470;2023-07-02T08:32:05;64.72;;;7.47;;
64252;SDS011;50592;52.958;-7.470;2023-07-02T08:34:31;19.83;;;2.65;;
64252;SDS011;50592;52.958;-7.470;2023-07-02T08:36:57;12.30;;;2.17;;
64252;SDS011;50592;52.958;-7.470;2023-07-02T08:39:22;16.95;;;2.58;;
64252;SDS011;50592;52.958;-7.470;2023-07-02T08:41:48;13.70;;;2.38;;
64252;SDS011;50592;52.958;-7.470;2023-07-02T08:44:16;15.48;;;2.22;;
64252;SDS011;50592;52.958;-7.470;2023-07-02T08:46:46;14.00;;;2.70;;
64252;SDS011;50592;52.958;-7.470;2023-07-02T08:49:16;13.27;;;2.45;;
64252;SDS011;50592;52.958;-7.470;2023-07-02T08:51:46;12.52;;;3.00;;
64252;SDS011;50592;52.958;-7.470;2023-07-02T08:54:12;14.25;;;2.13;;
64252;SDS011;50592;52.958;-7.470;2023-07-02T08:56:39;12.15;;;2.40;;
64252;SDS011;50592;52.958;-7.470;2023-07-02T08:59:09;13.95;;;2.00;;
64252;SDS011;50592;52.958;-7.470;2023-07-02T09:01:48;16.33;;;2.67;;
64252;SDS011;50592;52.958;-7.470;2023-07-02T09:04:18;15.23;;;2.30;;
64252;SDS011;50592;52.958;-7.470;2023-07-02T09:06:50;15.23;;;2.13;;
64252;SDS011;50592;52.958;-7.470;2023-07-02T09:09:51;16.40;;;2.38;;
64252;SDS011;50592;52.958;-7.470;2023-07-02T09:12:24;14.73;;;2.53;;
64252;SDS011;50592;52.958;-7.470;2023-07-02T09:14:54;14.25;;;3.08;;
64252;SDS011;50592;52.958;-7.470;2023-07-02T09:17:21;16.70;;;2.80;;
64252;SDS011;50592;52.958;-7.470;2023-07-02T09:19:52;10.35;;;2.45;;
64252;SDS011;50592;52.958;-7.470;2023-07-02T09:22:18;8.65;;;1.85;;
64252;SDS011;50592;52.958;-7.470;2023-07-02T09:24:51;12.00;;;2.50;;
64252;SDS011;50592;52.958;-7.470;2023-07-02T09:27:21;10.38;;;2.25;;
64252;SDS011;50592;52.958;-7.470;2023-07-02T09:29:50;13.35;;;2.90;;
64252;SDS011;50592;52.958;-7.470;2023-07-02T09:32:26;13.90;;;2.10;;
64252;SDS011;50592;52.958;-7.470;2023-07-02T09:34:53;14.30;;;2.10;;
64252;SDS011;50592;52.958;-7.470;2023-07-02T09:37:21;10.18;;;2.72;;
64252;SDS011;50592;52.958;-7.470;2023-07-02T09:39:49;13.90;;;2.42;;
64252;SDS011;50592;52.958;-7.470;2023-07-02T09:42:17;11.55;;;2.75;;
64252;SDS011;50592;52.958;-7.470;2023-07-02T09:44:45;11.43;;;2.17;;
64252;SDS011;50592;52.958;-7.470;2023-07-02T09:47:11;14.13;;;2.58;;
64252;SDS011;50592;52.958;-7.470;2023-07-02T09:49:43;10.18;;;2.17;;
64252;SDS011;50592;52.958;-7.470;2023-07-02T09:52:14;15.32;;;2.60;;
64252;SDS011;50592;52.958;-7.470;2023-07-02T09:54:42;13.05;;;1.88;;
64252;SDS011;50592;52.958;-7.470;2023-07-02T09:57:07;10.98;;;1.90;;
64252;SDS011;50592;52.958;-7.470;2023-07-02T09:59:37;12.18;;;1.60;;
64252;SDS011;50592;52.958;-7.470;2023-07-02T10:02:03;11.75;;;2.22;;
64252;SDS011;50592;52.958;-7.470;2023-07-02T10:04:39;11.23;;;2.03;;
64252;SDS011;50592;52.958;-7.470;2023-07-02T10:07:09;8.45;;;2.15;;
64252;SDS011;50592;52.958;-7.470;2023-07-02T10:09:43;10.45;;;1.77;;
64252;SDS011;50592;52.958;-7.470;2023-07-02T10:14:49;8.48;;;1.88;;
64252;SDS011;50592;52.958;-7.470;2023-07-02T10:17:53;10.82;;;1.50;;
64252;SDS011;50592;52.958;-7.470;2023-07-02T10:20:30;8.68;;;1.42;;
64252;SDS011;50592;52.958;-7.470;2023-07-02T10:23:00;9.98;;;1.83;;
64252;SDS011;50592;52.958;-7.470;2023-07-02T10:25:37;7.07;;;1.25;;
64252;SDS011;50592;52.958;-7.470;2023-07-02T10:28:17;6.32;;;0.80;;
64252;SDS011;50592;52.958;-7.470;2023-07-02T10:30:44;8.77;;;1.52;;
64252;SDS011;50592;52.958;-7.470;2023-07-02T10:33:11;6.68;;;1.42;;
64252;SDS011;50592;52.958;-7.470;2023-07-02T10:35:38;5.80;;;1.30;;
64252;SDS011;50592;52.958;-7.470;2023-07-02T10:38:07;7.55;;;1.15;;
64252;SDS011;50592;52.958;-7.470;2023-07-02T10:40:33;7.50;;;1.70;;
64252;SDS011;50592;52.958;-7.470;2023-07-02T10:42:59;6.07;;;1.00;;
64252;SDS011;50592;52.958;-7.470;2023-07-02T10:45:32;3.63;;;0.82;;
64252;SDS011;50592;52.958;-7.470;2023-07-02T10:47:59;6.95;;;1.00;;
64252;SDS011;50592;52.958;-7.470;2023-07-02T10:50:34;7.03;;;1.02;;
64252;SDS011;50592;52.958;-7.470;2023-07-02T10:53:00;6.03;;;0.95;;
64252;SDS011;50592;52.958;-7.470;2023-07-02T10:55:26;6.05;;;0.90;;
64252;SDS011;50592;52.958;-7.470;2023-07-02T10:58:06;7.28;;;1.00;;
64252;SDS011;50592;52.958;-7.470;2023-07-02T11:00:46;8.93;;;1.52;;
64252;SDS011;50592;52.958;-7.470;2023-07-02T11:03:23;8.60;;;1.35;;
64252;SDS011;50592;52.958;-7.470;2023-07-02T11:05:51;10.93;;;1.80;;
64252;SDS011;50592;52.958;-7.470;2023-07-02T11:08:18;5.78;;;0.65;;
64252;SDS011;50592;52.958;-7.470;2023-07-02T11:10:46;7.65;;;0.85;;
64252;SDS011;50592;52.958;-7.470;2023-07-02T11:13:13;4.20;;;0.90;;
64252;SDS011;50592;52.958;-7.470;2023-07-02T11:15:43;6.50;;;1.35;;
64252;SDS011;50592;52.958;-7.470;2023-07-02T11:18:14;10.90;;;1.48;;
64252;SDS011;50592;52.958;-7.470;2023-07-02T11:20:42;12.43;;;1.40;;
64252;SDS011;50592;52.958;-7.470;2023-07-02T11:23:21;7.00;;;1.27;;
64252;SDS011;50592;52.958;-7.470;2023-07-02T11:25:58;9.63;;;2.25;;
64252;SDS011;50592;52.958;-7.470;2023-07-02T11:28:25;14.27;;;2.25;;
64252;SDS011;50592;52.958;-7.470;2023-07-02T11:30:52;9.15;;;2.13;;
64252;SDS011;50592;52.958;-7.470;2023-07-02T11:33:20;9.55;;;1.45;;
64252;SDS011;50592;52.958;-7.470;2023-07-02T11:36:22;11.25;;;2.67;;
64252;SDS011;50592;52.958;-7.470;2023-07-02T11:38:54;129.73;;;42.40;;
64252;SDS011;50592;52.958;-7.470;2023-07-02T11:41:20;8.18;;;2.05;;
64252;SDS011;50592;52.958;-7.470;2023-07-02T11:43:47;8.75;;;1.52;;
64252;SDS011;50592;52.958;-7.470;2023-07-02T11:46:13;23.17;;;6.00;;
64252;SDS011;50592;52.958;-7.470;2023-07-02T11:48:39;6.40;;;2.00;;
64252;SDS011;50592;52.958;-7.470;2023-07-02T11:51:04;8.05;;;1.40;;
64252;SDS011;50592;52.958;-7.470;2023-07-02T11:53:30;9.95;;;1.50;;
64252;SDS011;50592;52.958;-7.470;2023-07-02T11:55:56;10.45;;;2.40;;
64252;SDS011;50592;52.958;-7.470;2023-07-02T11:58:22;5.07;;;1.45;;
64252;SDS011;50592;52.958;-7.470;2023-07-02T12:00:48;6.10;;;1.45;;
64252;SDS011;50592;52.958;-7.470;2023-07-02T12:03:14;6.68;;;1.48;;
64252;SDS011;50592;52.958;-7.470;2023-07-02T12:05:39;8.77;;;1.50;;
64252;SDS011;50592;52.958;-7.470;2023-07-02T12:08:06;8.55;;;1.42;;
64252;SDS011;50592;52.958;-7.470;2023-07-02T12:10:31;8.65;;;1.23;;
64252;SDS011;50592;52.958;-7.470;2023-07-02T12:12:57;10.27;;;1.42;;
64252;SDS011;50592;52.958;-7.470;2023-07-02T12:15:23;7.45;;;1.30;;
64252;SDS011;50592;52.958;-7.470;2023-07-02T12:17:49;12.00;;;2.20;;
64252;SDS011;50592;52.958;-7.470;2023-07-02T12:20:15;13.07;;;2.53;;
64252;SDS011;50592;52.958;-7.470;2023-07-02T12:22:41;13.95;;;2.30;;
64252;SDS011;50592;52.958;-7.470;2023-07-02T12:25:07;8.07;;;1.58;;
64252;SDS011;50592;52.958;-7.470;2023-07-02T12:27:33;10.40;;;2.15;;
64252;SDS011;50592;52.958;-7.470;2023-07-02T12:29:59;9.90;;;1.63;;
64252;SDS011;50592;52.958;-7.470;2023-07-02T12:32:24;7.90;;;1.63;;
64252;SDS011;50592;52.958;-7.470;2023-07-02T12:34:50;14.82;;;2.95;;
64252;SDS011;50592;52.958;-7.470;2023-07-02T12:37:16;15.20;;;2.35;;
64252;SDS011;50592;52.958;-7.470;2023-07-02T12:39:44;8.85;;;1.63;;
64252;SDS011;50592;52.958;-7.470;2023-07-02T12:42:10;11.02;;;1.98;;
64252;SDS011;50592;52.958;-7.470;2023-07-02T12:44:36;8.52;;;1.38;;
64252;SDS011;50592;52.958;-7.470;2023-07-02T12:47:02;8.95;;;1.70;;
64252;SDS011;50592;52.958;-7.470;2023-07-02T12:49:28;11.30;;;2.30;;
64252;SDS011;50592;52.958;-7.470;2023-07-02T12:51:54;10.50;;;2.42;;
64252;SDS011;50592;52.958;-7.470;2023-07-02T12:54:20;10.73;;;2.22;;
64252;SDS011;50592;52.958;-7.470;2023-07-02T12:56:45;11.77;;;2.55;;
64252;SDS011;50592;52.958;-7.470;2023-07-02T12:59:11;8.43;;;1.77;;
64252;SDS011;50592;52.958;-7.470;2023-07-02T13:01:37;7.32;;;1.40;;
64252;SDS011;50592;52.958;-7.470;2023-07-02T13:04:03;11.85;;;1.63;;
64252;SDS011;50592;52.958;-7.470;2023-07-02T13:06:29;10.68;;;1.70;;
64252;SDS011;50592;52.958;-7.470;2023-07-02T13:08:59;11.50;;;1.85;;
64252;SDS011;50592;52.958;-7.470;2023-07-02T13:11:25;10.98;;;2.50;;
64252;SDS011;50592;52.958;-7.470;2023-07-02T13:13:51;5.03;;;1.23;;
64252;SDS011;50592;52.958;-7.470;2023-07-02T13:16:16;8.05;;;1.50;;
64252;SDS011;50592;52.958;-7.470;2023-07-02T13:18:42;7.40;;;1.52;;
64252;SDS011;50592;52.958;-7.470;2023-07-02T13:21:08;6.40;;;1.42;;
64252;SDS011;50592;52.958;-7.470;2023-07-02T13:23:34;5.63;;;1.33;;
64252;SDS011;50592;52.958;-7.470;2023-07-02T13:26:00;8.60;;;1.77;;
64252;SDS011;50592;52.958;-7.470;2023-07-02T13:28:25;5.25;;;1.38;;
64252;SDS011;50592;52.958;-7.470;2023-07-02T13:30:53;9.93;;;1.55;;
64252;SDS011;50592;52.958;-7.470;2023-07-02T13:33:19;6.07;;;1.80;;
64252;SDS011;50592;52.958;-7.470;2023-07-02T13:35:44;8.32;;;1.63;;
64252;SDS011;50592;52.958;-7.470;2023-07-02T13:38:11;8.05;;;1.33;;
64252;SDS011;50592;52.958;-7.470;2023-07-02T13:40:36;9.55;;;1.92;;
64252;SDS011;50592;52.958;-7.470;2023-07-02T13:43:02;8.57;;;1.83;;
64252;SDS011;50592;52.958;-7.470;2023-07-02T13:45:28;9.45;;;2.08;;
64252;SDS011;50592;52.958;-7.470;2023-07-02T13:47:54;11.95;;;1.35;;
64252;SDS011;50592;52.958;-7.470;2023-07-02T13:50:20;8.63;;;1.92;;
64252;SDS011;50592;52.958;-7.470;2023-07-02T13:52:46;9.88;;;1.67;;
64252;SDS011;50592;52.958;-7.470;2023-07-02T13:55:12;6.82;;;1.60;;
64252;SDS011;50592;52.958;-7.470;2023-07-02T13:57:38;11.07;;;1.80;;
64252;SDS011;50592;52.958;-7.470;2023-07-02T14:00:04;10.20;;;1.77;;
64252;SDS011;50592;52.958;-7.470;2023-07-02T14:02:31;8.75;;;1.52;;
64252;SDS011;50592;52.958;-7.470;2023-07-02T14:04:57;4.95;;;0.88;;
64252;SDS011;50592;52.958;-7.470;2023-07-02T14:07:24;7.53;;;1.13;;
64252;SDS011;50592;52.958;-7.470;2023-07-02T14:09:50;13.02;;;1.65;;
64252;SDS011;50592;52.958;-7.470;2023-07-02T14:12:16;12.90;;;2.25;;
64252;SDS011;50592;52.958;-7.470;2023-07-02T14:14:42;8.13;;;1.45;;
64252;SDS011;50592;52.958;-7.470;2023-07-02T14:17:08;8.45;;;1.40;;
64252;SDS011;50592;52.958;-7.470;2023-07-02T14:19:33;8.30;;;1.30;;
64252;SDS011;50592;52.958;-7.470;2023-07-02T14:21:59;10.85;;;1.58;;
64252;SDS011;50592;52.958;-7.470;2023-07-02T14:24:25;8.52;;;1.63;;
64252;SDS011;50592;52.958;-7.470;2023-07-02T14:26:51;9.95;;;1.60;;
64252;SDS011;50592;52.958;-7.470;2023-07-02T14:29:17;11.05;;;2.00;;